Terminal Aerodrome Forecast
Issued by NWS

Current Version | Previous Version | Text Only | Print | Product List | Glossary On
Versions: 1 2 3 4 5 6 7 8 9 10 11 12 13 14 15 16 17 18
000
FTUS46 KOTX 162337
TAFSFF
TAF
KSFF 162337Z 1700/1724 21009KT P6SM FEW200
     FM170200 VRB03KT P6SM BKN200
     FM171500 23002KT P6SM SCT150 BKN200 WS020/24030KT
     FM171700 20012G20KT P6SM SCT150 BKN200
     FM171900 22025G40KT P6SM BKN080 BKN150
     FM172200 22025G43KT 5SM HZ SCT100=

USA.gov is the U.S. government's official web portal to all federal, state and local government web resources and services.